aviador You're here:

K0CO Decoded Metar

BERTHOUD PASS in CO, USA
Report Time2018-01-17 08:49:00
UTC Time2018-01-17 09:14:05
Flight Rules vfr VFR
Wind320° at 27 Gusting to 32 kt
W.Rank320° ranks 3
Current wind is above 320° avg. (17.2)
Visibility9999 m
Phenomena:N/A
Clouds:N/A
Expected CloudBase > 2,800 ft AGL from Temp-Dew spread
CeilingNone
Temp-11°C (ISA +1)
Dew Point-18°C (57% RH)
AAT-24.2°C
QNH1025 hPa
Density Alt13,212 ft
Elevation13,494 ft
Report Wrong Elevation
Raw Report
METAR K0CO 170849Z AUTO 32027G32KT 10SM CLR M11/M18 A3026 RMK AO2=

Extra information for K0CO:More info

Metar Taf Metar & Taf Last 4 Metars F.Rules Stats Wind Profile Meteogram Temp Stats Airport Information Weather charts Add Link Nearby VenuesMetar ALERT Operation Metar Decoded Social comments

AIRNAV info for K0CO